sensor_id;sensor_type;location;lat;lon;timestamp;temperature;humidity
63047;DHT22;62025;39.238;9.126;2024-02-21T00:01:07;13.00;72.00
63047;DHT22;62025;39.238;9.126;2024-02-21T00:03:33;13.00;71.80
63047;DHT22;62025;39.238;9.126;2024-02-21T00:05:58;13.00;71.90
63047;DHT22;62025;39.238;9.126;2024-02-21T00:08:25;13.10;71.60
63047;DHT22;62025;39.238;9.126;2024-02-21T00:10:51;13.10;71.60
63047;DHT22;62025;39.238;9.126;2024-02-21T00:13:17;13.00;71.60
63047;DHT22;62025;39.238;9.126;2024-02-21T00:15:43;13.00;71.90
63047;DHT22;62025;39.238;9.126;2024-02-21T00:18:09;13.00;72.00
63047;DHT22;62025;39.238;9.126;2024-02-21T00:20:36;13.00;71.80
63047;DHT22;62025;39.238;9.126;2024-02-21T00:23:02;12.90;71.80
63047;DHT22;62025;39.238;9.126;2024-02-21T00:25:29;12.80;72.00
63047;DHT22;62025;39.238;9.126;2024-02-21T00:27:55;12.90;72.00
63047;DHT22;62025;39.238;9.126;2024-02-21T00:30:21;12.80;72.10
63047;DHT22;62025;39.238;9.126;2024-02-21T00:32:47;12.80;72.10
63047;DHT22;62025;39.238;9.126;2024-02-21T00:35:14;12.80;71.90
63047;DHT22;62025;39.238;9.126;2024-02-21T00:37:40;12.80;71.40
63047;DHT22;62025;39.238;9.126;2024-02-21T00:40:06;12.80;71.50
63047;DHT22;62025;39.238;9.126;2024-02-21T00:42:33;12.90;71.60
63047;DHT22;62025;39.238;9.126;2024-02-21T00:44:59;12.80;71.50
63047;DHT22;62025;39.238;9.126;2024-02-21T00:47:24;12.80;71.70
63047;DHT22;62025;39.238;9.126;2024-02-21T00:49:51;12.80;71.80
63047;DHT22;62025;39.238;9.126;2024-02-21T00:52:17;12.80;71.90
63047;DHT22;62025;39.238;9.126;2024-02-21T00:54:42;12.80;71.90
63047;DHT22;62025;39.238;9.126;2024-02-21T00:57:08;12.80;71.80
63047;DHT22;62025;39.238;9.126;2024-02-21T00:59:34;12.80;71.90
63047;DHT22;62025;39.238;9.126;2024-02-21T01:02:00;12.70;72.00
63047;DHT22;62025;39.238;9.126;2024-02-21T01:04:26;12.80;71.90
63047;DHT22;62025;39.238;9.126;2024-02-21T01:06:52;12.80;71.70
63047;DHT22;62025;39.238;9.126;2024-02-21T01:09:18;12.80;71.50
63047;DHT22;62025;39.238;9.126;2024-02-21T01:11:44;12.80;71.70
63047;DHT22;62025;39.238;9.126;2024-02-21T01:14:10;12.70;71.80
63047;DHT22;62025;39.238;9.126;2024-02-21T01:16:37;12.70;72.10
63047;DHT22;62025;39.238;9.126;2024-02-21T01:19:03;12.70;71.90
63047;DHT22;62025;39.238;9.126;2024-02-21T01:21:29;12.60;71.60
63047;DHT22;62025;39.238;9.126;2024-02-21T01:23:55;12.60;71.50
63047;DHT22;62025;39.238;9.126;2024-02-21T01:26:20;12.60;71.40
63047;DHT22;62025;39.238;9.126;2024-02-21T01:28:46;12.60;71.20
63047;DHT22;62025;39.238;9.126;2024-02-21T01:31:12;12.60;71.00
63047;DHT22;62025;39.238;9.126;2024-02-21T01:33:38;12.60;71.10
63047;DHT22;62025;39.238;9.126;2024-02-21T01:36:05;12.60;71.00
63047;DHT22;62025;39.238;9.126;2024-02-21T01:38:34;12.70;70.80
63047;DHT22;62025;39.238;9.126;2024-02-21T01:41:00;12.60;71.10
63047;DHT22;62025;39.238;9.126;2024-02-21T01:43:26;12.70;71.30
63047;DHT22;62025;39.238;9.126;2024-02-21T01:45:55;12.60;71.50
63047;DHT22;62025;39.238;9.126;2024-02-21T01:48:21;12.60;71.70
63047;DHT22;62025;39.238;9.126;2024-02-21T01:50:52;12.60;72.00
63047;DHT22;62025;39.238;9.126;2024-02-21T01:53:22;12.50;71.90
63047;DHT22;62025;39.238;9.126;2024-02-21T01:55:49;12.60;71.80
63047;DHT22;62025;39.238;9.126;2024-02-21T01:58:16;12.60;71.80
63047;DHT22;62025;39.238;9.126;2024-02-21T02:00:43;12.60;71.70
63047;DHT22;62025;39.238;9.126;2024-02-21T02:03:11;12.60;71.70
63047;DHT22;62025;39.238;9.126;2024-02-21T02:05:46;12.60;71.80
63047;DHT22;62025;39.238;9.126;2024-02-21T02:08:17;12.50;71.80
63047;DHT22;62025;39.238;9.126;2024-02-21T02:10:45;12.50;72.10
63047;DHT22;62025;39.238;9.126;2024-02-21T02:13:11;12.50;72.10
63047;DHT22;62025;39.238;9.126;2024-02-21T02:15:45;12.40;72.30
63047;DHT22;62025;39.238;9.126;2024-02-21T02:18:14;12.30;72.30
63047;DHT22;62025;39.238;9.126;2024-02-21T02:20:41;12.30;72.50
63047;DHT22;62025;39.238;9.126;2024-02-21T02:23:28;12.30;72.50
63047;DHT22;62025;39.238;9.126;2024-02-21T02:25:54;12.30;72.60
63047;DHT22;62025;39.238;9.126;2024-02-21T02:28:21;12.20;72.60
63047;DHT22;62025;39.238;9.126;2024-02-21T02:30:48;12.20;72.50
63047;DHT22;62025;39.238;9.126;2024-02-21T02:33:14;12.20;72.50
63047;DHT22;62025;39.238;9.126;2024-02-21T02:35:42;12.20;72.40
63047;DHT22;62025;39.238;9.126;2024-02-21T02:38:09;12.20;72.20
63047;DHT22;62025;39.238;9.126;2024-02-21T02:40:37;12.20;72.10
63047;DHT22;62025;39.238;9.126;2024-02-21T02:43:03;12.20;71.90
63047;DHT22;62025;39.238;9.126;2024-02-21T02:45:29;12.20;71.80
63047;DHT22;62025;39.238;9.126;2024-02-21T02:47:56;12.10;71.80
63047;DHT22;62025;39.238;9.126;2024-02-21T02:50:26;12.10;71.80
63047;DHT22;62025;39.238;9.126;2024-02-21T02:52:53;12.10;71.80
63047;DHT22;62025;39.238;9.126;2024-02-21T02:55:20;12.10;71.80
63047;DHT22;62025;39.238;9.126;2024-02-21T02:57:46;12.00;71.80
63047;DHT22;62025;39.238;9.126;2024-02-21T03:00:13;12.00;71.80
63047;DHT22;62025;39.238;9.126;2024-02-21T03:02:41;12.00;71.80
63047;DHT22;62025;39.238;9.126;2024-02-21T03:05:19;12.00;71.70
63047;DHT22;62025;39.238;9.126;2024-02-21T03:07:47;11.90;71.80
63047;DHT22;62025;39.238;9.126;2024-02-21T03:10:14;11.90;71.90
63047;DHT22;62025;39.238;9.126;2024-02-21T03:12:42;12.00;71.60
63047;DHT22;62025;39.238;9.126;2024-02-21T03:15:08;12.00;71.70
63047;DHT22;62025;39.238;9.126;2024-02-21T03:17:34;12.00;71.60
63047;DHT22;62025;39.238;9.126;2024-02-21T03:20:03;11.90;71.60
63047;DHT22;62025;39.238;9.126;2024-02-21T03:22:36;11.80;71.90
63047;DHT22;62025;39.238;9.126;2024-02-21T03:25:03;11.80;71.70
63047;DHT22;62025;39.238;9.126;2024-02-21T03:27:29;11.80;71.90
63047;DHT22;62025;39.238;9.126;2024-02-21T03:29:55;11.90;71.50
63047;DHT22;62025;39.238;9.126;2024-02-21T03:32:21;11.90;71.40
63047;DHT22;62025;39.238;9.126;2024-02-21T03:34:47;11.90;71.30
63047;DHT22;62025;39.238;9.126;2024-02-21T03:37:13;11.90;71.40
63047;DHT22;62025;39.238;9.126;2024-02-21T03:39:40;11.80;71.30
63047;DHT22;62025;39.238;9.126;2024-02-21T03:42:06;11.80;71.40
63047;DHT22;62025;39.238;9.126;2024-02-21T03:44:32;11.80;71.30
63047;DHT22;62025;39.238;9.126;2024-02-21T03:46:59;11.80;71.30
63047;DHT22;62025;39.238;9.126;2024-02-21T03:49:26;11.80;71.30
63047;DHT22;62025;39.238;9.126;2024-02-21T03:51:52;11.90;71.30
63047;DHT22;62025;39.238;9.126;2024-02-21T03:54:19;11.80;71.40
63047;DHT22;62025;39.238;9.126;2024-02-21T03:56:45;11.70;71.40
63047;DHT22;62025;39.238;9.126;2024-02-21T03:59:13;11.70;71.50
63047;DHT22;62025;39.238;9.126;2024-02-21T04:01:39;11.80;71.70
63047;DHT22;62025;39.238;9.126;2024-02-21T04:04:05;11.70;71.50
63047;DHT22;62025;39.238;9.126;2024-02-21T04:06:31;11.70;71.60
63047;DHT22;62025;39.238;9.126;2024-02-21T04:08:57;11.70;71.70
63047;DHT22;62025;39.238;9.126;2024-02-21T04:11:23;11.70;71.50
63047;DHT22;62025;39.238;9.126;2024-02-21T04:13:49;11.70;71.40
63047;DHT22;62025;39.238;9.126;2024-02-21T04:16:16;11.70;71.30
63047;DHT22;62025;39.238;9.126;2024-02-21T04:18:42;11.70;71.20
63047;DHT22;62025;39.238;9.126;2024-02-21T04:21:09;11.60;71.40
63047;DHT22;62025;39.238;9.126;2024-02-21T04:23:35;11.60;71.40
63047;DHT22;62025;39.238;9.126;2024-02-21T04:26:01;11.60;71.50
63047;DHT22;62025;39.238;9.126;2024-02-21T04:28:27;11.60;71.60
63047;DHT22;62025;39.238;9.126;2024-02-21T04:30:53;11.60;71.70
63047;DHT22;62025;39.238;9.126;2024-02-21T04:33:19;11.60;71.70
63047;DHT22;62025;39.238;9.126;2024-02-21T04:35:45;11.60;71.60
63047;DHT22;62025;39.238;9.126;2024-02-21T04:38:11;11.60;71.30
63047;DHT22;62025;39.238;9.126;2024-02-21T04:40:37;11.60;71.30
63047;DHT22;62025;39.238;9.126;2024-02-21T04:43:03;11.60;71.20
63047;DHT22;62025;39.238;9.126;2024-02-21T04:45:29;11.60;71.20
63047;DHT22;62025;39.238;9.126;2024-02-21T04:47:55;11.50;71.30
63047;DHT22;62025;39.238;9.126;2024-02-21T04:50:21;11.50;71.30
63047;DHT22;62025;39.238;9.126;2024-02-21T04:52:47;11.50;71.30
63047;DHT22;62025;39.238;9.126;2024-02-21T04:55:13;11.50;71.30
63047;DHT22;62025;39.238;9.126;2024-02-21T04:57:39;11.50;71.30
63047;DHT22;62025;39.238;9.126;2024-02-21T05:00:06;11.50;71.30
63047;DHT22;62025;39.238;9.126;2024-02-21T05:02:32;11.40;71.00
63047;DHT22;62025;39.238;9.126;2024-02-21T05:04:58;11.40;70.90
63047;DHT22;62025;39.238;9.126;2024-02-21T05:07:24;11.40;70.80
63047;DHT22;62025;39.238;9.126;2024-02-21T05:09:51;11.40;70.70
63047;DHT22;62025;39.238;9.126;2024-02-21T05:12:17;11.40;70.80
63047;DHT22;62025;39.238;9.126;2024-02-21T05:14:43;11.50;70.50
63047;DHT22;62025;39.238;9.126;2024-02-21T05:17:09;11.40;70.50
63047;DHT22;62025;39.238;9.126;2024-02-21T05:19:35;11.30;70.60
63047;DHT22;62025;39.238;9.126;2024-02-21T05:22:00;11.30;70.70
63047;DHT22;62025;39.238;9.126;2024-02-21T05:24:26;11.40;70.60
63047;DHT22;62025;39.238;9.126;2024-02-21T05:26:53;11.40;70.60
63047;DHT22;62025;39.238;9.126;2024-02-21T05:29:19;11.40;70.60
63047;DHT22;62025;39.238;9.126;2024-02-21T05:34:18;11.30;71.00
63047;DHT22;62025;39.238;9.126;2024-02-21T05:36:45;11.30;70.80
63047;DHT22;62025;39.238;9.126;2024-02-21T05:39:12;11.30;70.60
63047;DHT22;62025;39.238;9.126;2024-02-21T05:41:38;11.30;70.30
63047;DHT22;62025;39.238;9.126;2024-02-21T05:44:04;11.30;70.30
63047;DHT22;62025;39.238;9.126;2024-02-21T05:46:30;11.30;70.50
63047;DHT22;62025;39.238;9.126;2024-02-21T05:48:56;11.30;70.20
63047;DHT22;62025;39.238;9.126;2024-02-21T05:51:22;11.20;70.60
63047;DHT22;62025;39.238;9.126;2024-02-21T05:53:48;11.30;70.50
63047;DHT22;62025;39.238;9.126;2024-02-21T05:56:14;11.30;70.40
63047;DHT22;62025;39.238;9.126;2024-02-21T05:58:40;11.20;70.20
63047;DHT22;62025;39.238;9.126;2024-02-21T06:01:07;11.10;70.50
63047;DHT22;62025;39.238;9.126;2024-02-21T06:03:33;11.20;70.40
63047;DHT22;62025;39.238;9.126;2024-02-21T06:06:00;11.10;70.50
63047;DHT22;62025;39.238;9.126;2024-02-21T06:08:26;11.20;70.50
63047;DHT22;62025;39.238;9.126;2024-02-21T06:10:52;11.20;70.30
63047;DHT22;62025;39.238;9.126;2024-02-21T06:13:21;11.10;70.50
63047;DHT22;62025;39.238;9.126;2024-02-21T06:15:49;11.10;70.30
63047;DHT22;62025;39.238;9.126;2024-02-21T06:18:17;11.00;70.40
63047;DHT22;62025;39.238;9.126;2024-02-21T06:20:43;11.20;70.20
63047;DHT22;62025;39.238;9.126;2024-02-21T06:23:10;11.10;70.10
63047;DHT22;62025;39.238;9.126;2024-02-21T06:25:37;11.00;70.40
63047;DHT22;62025;39.238;9.126;2024-02-21T06:28:04;11.20;70.30
63047;DHT22;62025;39.238;9.126;2024-02-21T06:30:30;11.10;70.50
63047;DHT22;62025;39.238;9.126;2024-02-21T06:32:56;11.30;70.40
63047;DHT22;62025;39.238;9.126;2024-02-21T06:35:22;11.30;70.10
63047;DHT22;62025;39.238;9.126;2024-02-21T06:37:50;11.40;69.60
63047;DHT22;62025;39.238;9.126;2024-02-21T06:40:18;11.50;69.00
63047;DHT22;62025;39.238;9.126;2024-02-21T06:42:46;11.70;68.50
63047;DHT22;62025;39.238;9.126;2024-02-21T06:45:12;11.80;68.10
63047;DHT22;62025;39.238;9.126;2024-02-21T06:47:38;11.80;67.70
63047;DHT22;62025;39.238;9.126;2024-02-21T06:50:04;11.90;67.40
63047;DHT22;62025;39.238;9.126;2024-02-21T06:52:30;12.00;67.10
63047;DHT22;62025;39.238;9.126;2024-02-21T06:54:56;12.10;66.50
63047;DHT22;62025;39.238;9.126;2024-02-21T06:57:22;12.10;66.40
63047;DHT22;62025;39.238;9.126;2024-02-21T06:59:49;12.20;66.40
63047;DHT22;62025;39.238;9.126;2024-02-21T07:02:15;12.30;66.00
63047;DHT22;62025;39.238;9.126;2024-02-21T07:04:41;12.40;65.70
63047;DHT22;62025;39.238;9.126;2024-02-21T07:07:07;12.60;65.30
63047;DHT22;62025;39.238;9.126;2024-02-21T07:09:33;12.80;64.70
63047;DHT22;62025;39.238;9.126;2024-02-21T07:11:59;12.90;64.20
63047;DHT22;62025;39.238;9.126;2024-02-21T07:14:25;13.00;63.70
63047;DHT22;62025;39.238;9.126;2024-02-21T07:16:51;12.90;63.50
63047;DHT22;62025;39.238;9.126;2024-02-21T07:19:17;13.00;63.10
63047;DHT22;62025;39.238;9.126;2024-02-21T07:21:43;13.20;63.10
63047;DHT22;62025;39.238;9.126;2024-02-21T07:24:09;13.40;62.70
63047;DHT22;62025;39.238;9.126;2024-02-21T07:26:35;13.60;62.30
63047;DHT22;62025;39.238;9.126;2024-02-21T07:29:01;13.70;61.80
63047;DHT22;62025;39.238;9.126;2024-02-21T07:31:27;13.80;61.10
63047;DHT22;62025;39.238;9.126;2024-02-21T07:33:53;14.00;60.70
63047;DHT22;62025;39.238;9.126;2024-02-21T07:36:29;14.30;60.20
63047;DHT22;62025;39.238;9.126;2024-02-21T07:38:58;14.60;59.80
63047;DHT22;62025;39.238;9.126;2024-02-21T07:41:25;14.80;59.30
63047;DHT22;62025;39.238;9.126;2024-02-21T07:43:52;14.90;58.70
63047;DHT22;62025;39.238;9.126;2024-02-21T07:46:21;15.10;58.10
63047;DHT22;62025;39.238;9.126;2024-02-21T07:48:46;15.30;57.40
63047;DHT22;62025;39.238;9.126;2024-02-21T07:51:14;15.20;57.70
63047;DHT22;62025;39.238;9.126;2024-02-21T07:53:42;15.40;57.40
63047;DHT22;62025;39.238;9.126;2024-02-21T07:56:13;15.70;56.70
63047;DHT22;62025;39.238;9.126;2024-02-21T07:58:41;16.00;55.90
63047;DHT22;62025;39.238;9.126;2024-02-21T08:01:08;16.30;55.00
63047;DHT22;62025;39.238;9.126;2024-02-21T08:03:34;16.50;54.60
63047;DHT22;62025;39.238;9.126;2024-02-21T08:06:01;16.60;54.30
63047;DHT22;62025;39.238;9.126;2024-02-21T08:08:28;16.80;53.90
63047;DHT22;62025;39.238;9.126;2024-02-21T08:10:54;17.00;53.10
63047;DHT22;62025;39.238;9.126;2024-02-21T08:13:20;17.30;52.80
63047;DHT22;62025;39.238;9.126;2024-02-21T08:15:46;17.50;52.40
63047;DHT22;62025;39.238;9.126;2024-02-21T08:18:12;17.70;51.70
63047;DHT22;62025;39.238;9.126;2024-02-21T08:20:38;17.80;51.10
63047;DHT22;62025;39.238;9.126;2024-02-21T08:23:04;18.00;51.00
63047;DHT22;62025;39.238;9.126;2024-02-21T08:25:30;18.30;50.80
63047;DHT22;62025;39.238;9.126;2024-02-21T08:27:58;18.40;50.00
63047;DHT22;62025;39.238;9.126;2024-02-21T08:30:25;18.60;48.80
63047;DHT22;62025;39.238;9.126;2024-02-21T08:32:51;18.80;49.00
63047;DHT22;62025;39.238;9.126;2024-02-21T08:35:19;18.90;48.80
63047;DHT22;62025;39.238;9.126;2024-02-21T08:37:48;19.10;48.40
63047;DHT22;62025;39.238;9.126;2024-02-21T08:40:14;19.20;47.90
63047;DHT22;62025;39.238;9.126;2024-02-21T08:42:43;19.30;47.80
63047;DHT22;62025;39.238;9.126;2024-02-21T08:45:10;19.30;48.40
63047;DHT22;62025;39.238;9.126;2024-02-21T08:47:36;19.40;48.80
63047;DHT22;62025;39.238;9.126;2024-02-21T08:50:05;19.90;47.90
63047;DHT22;62025;39.238;9.126;2024-02-21T08:52:32;19.90;47.40
63047;DHT22;62025;39.238;9.126;2024-02-21T08:54:58;20.00;47.00
63047;DHT22;62025;39.238;9.126;2024-02-21T08:57:24;20.10;46.60
63047;DHT22;62025;39.238;9.126;2024-02-21T08:59:50;20.20;46.80
63047;DHT22;62025;39.238;9.126;2024-02-21T09:02:16;20.30;46.60
63047;DHT22;62025;39.238;9.126;2024-02-21T09:04:42;20.30;46.50
63047;DHT22;62025;39.238;9.126;2024-02-21T09:07:10;20.20;46.40
63047;DHT22;62025;39.238;9.126;2024-02-21T09:09:36;20.30;46.70
63047;DHT22;62025;39.238;9.126;2024-02-21T09:12:06;20.50;46.00
63047;DHT22;62025;39.238;9.126;2024-02-21T09:14:33;20.60;46.10
63047;DHT22;62025;39.238;9.126;2024-02-21T09:16:59;20.80;45.70
63047;DHT22;62025;39.238;9.126;2024-02-21T09:19:25;20.90;45.70
63047;DHT22;62025;39.238;9.126;2024-02-21T09:21:51;20.80;45.70
63047;DHT22;62025;39.238;9.126;2024-02-21T09:24:18;21.00;45.20
63047;DHT22;62025;39.238;9.126;2024-02-21T09:26:44;21.30;45.00
63047;DHT22;62025;39.238;9.126;2024-02-21T09:29:10;21.40;44.20
63047;DHT22;62025;39.238;9.126;2024-02-21T09:31:36;21.40;43.60
63047;DHT22;62025;39.238;9.126;2024-02-21T09:34:04;21.40;43.60
63047;DHT22;62025;39.238;9.126;2024-02-21T09:36:30;21.30;43.90
63047;DHT22;62025;39.238;9.126;2024-02-21T09:38:56;21.40;43.70
63047;DHT22;62025;39.238;9.126;2024-02-21T09:41:26;21.70;43.60
63047;DHT22;62025;39.238;9.126;2024-02-21T09:43:55;21.80;43.40
63047;DHT22;62025;39.238;9.126;2024-02-21T09:46:44;21.90;42.30
63047;DHT22;62025;39.238;9.126;2024-02-21T09:49:33;21.90;42.90
63047;DHT22;62025;39.238;9.126;2024-02-21T09:52:02;22.20;43.00
63047;DHT22;62025;39.238;9.126;2024-02-21T09:54:30;22.30;42.20
63047;DHT22;62025;39.238;9.126;2024-02-21T09:57:00;22.50;42.20
63047;DHT22;62025;39.238;9.126;2024-02-21T09:59:31;22.40;42.10
63047;DHT22;62025;39.238;9.126;2024-02-21T10:01:58;22.70;41.70
63047;DHT22;62025;39.238;9.126;2024-02-21T10:04:28;22.70;40.70
63047;DHT22;62025;39.238;9.126;2024-02-21T10:06:55;22.60;40.60
63047;DHT22;62025;39.238;9.126;2024-02-21T10:09:25;22.80;40.40
63047;DHT22;62025;39.238;9.126;2024-02-21T10:11:55;22.80;40.40
63047;DHT22;62025;39.238;9.126;2024-02-21T10:14:22;22.90;40.50
63047;DHT22;62025;39.238;9.126;2024-02-21T10:16:57;23.00;40.20
63047;DHT22;62025;39.238;9.126;2024-02-21T10:19:24;22.80;39.90
63047;DHT22;62025;39.238;9.126;2024-02-21T10:22:23;22.90;39.60
63047;DHT22;62025;39.238;9.126;2024-02-21T10:24:51;22.90;39.20
63047;DHT22;62025;39.238;9.126;2024-02-21T10:27:23;23.00;38.50
63047;DHT22;62025;39.238;9.126;2024-02-21T10:29:50;23.20;37.80
63047;DHT22;62025;39.238;9.126;2024-02-21T10:32:17;23.40;37.60
63047;DHT22;62025;39.238;9.126;2024-02-21T10:34:44;23.40;37.30
63047;DHT22;62025;39.238;9.126;2024-02-21T10:37:11;23.30;37.30
63047;DHT22;62025;39.238;9.126;2024-02-21T10:39:39;23.30;36.80
63047;DHT22;62025;39.238;9.126;2024-02-21T10:42:06;23.20;36.50
63047;DHT22;62025;39.238;9.126;2024-02-21T10:44:39;23.00;37.20
63047;DHT22;62025;39.238;9.126;2024-02-21T10:47:10;22.90;37.70
63047;DHT22;62025;39.238;9.126;2024-02-21T10:49:40;22.90;38.30
63047;DHT22;62025;39.238;9.126;2024-02-21T10:52:14;22.80;38.30
63047;DHT22;62025;39.238;9.126;2024-02-21T10:54:47;22.70;38.50
63047;DHT22;62025;39.238;9.126;2024-02-21T10:57:19;22.80;38.60
63047;DHT22;62025;39.238;9.126;2024-02-21T10:59:48;22.50;38.10
63047;DHT22;62025;39.238;9.126;2024-02-21T11:02:15;22.40;37.80
63047;DHT22;62025;39.238;9.126;2024-02-21T11:04:41;22.20;37.60
63047;DHT22;62025;39.238;9.126;2024-02-21T11:07:08;22.10;38.50
63047;DHT22;62025;39.238;9.126;2024-02-21T11:09:35;22.00;38.20
63047;DHT22;62025;39.238;9.126;2024-02-21T11:12:05;21.90;38.00
63047;DHT22;62025;39.238;9.126;2024-02-21T11:14:32;21.90;37.90
63047;DHT22;62025;39.238;9.126;2024-02-21T11:16:59;21.90;38.30
63047;DHT22;62025;39.238;9.126;2024-02-21T11:19:26;21.80;37.20
63047;DHT22;62025;39.238;9.126;2024-02-21T11:21:55;21.70;37.80
63047;DHT22;62025;39.238;9.126;2024-02-21T11:24:33;21.70;37.20
63047;DHT22;62025;39.238;9.126;2024-02-21T11:29:48;21.40;35.80
63047;DHT22;62025;39.238;9.126;2024-02-21T11:32:19;21.20;35.50
63047;DHT22;62025;39.238;9.126;2024-02-21T11:35:03;21.10;35.10
63047;DHT22;62025;39.238;9.126;2024-02-21T11:37:34;21.00;35.10
63047;DHT22;62025;39.238;9.126;2024-02-21T11:40:03;21.00;34.20
63047;DHT22;62025;39.238;9.126;2024-02-21T11:42:30;21.10;35.10
63047;DHT22;62025;39.238;9.126;2024-02-21T11:44:57;20.90;35.10
63047;DHT22;62025;39.238;9.126;2024-02-21T11:47:23;20.80;35.80
63047;DHT22;62025;39.238;9.126;2024-02-21T11:49:50;20.60;35.70
63047;DHT22;62025;39.238;9.126;2024-02-21T11:52:21;20.40;35.60
63047;DHT22;62025;39.238;9.126;2024-02-21T11:54:51;20.40;34.80
63047;DHT22;62025;39.238;9.126;2024-02-21T11:57:18;20.60;35.40
63047;DHT22;62025;39.238;9.126;2024-02-21T11:59:45;20.20;34.30
63047;DHT22;62025;39.238;9.126;2024-02-21T12:02:12;20.20;36.10
63047;DHT22;62025;39.238;9.126;2024-02-21T12:04:38;20.30;36.10
63047;DHT22;62025;39.238;9.126;2024-02-21T12:07:05;20.10;35.20
63047;DHT22;62025;39.238;9.126;2024-02-21T12:09:33;20.10;35.50
63047;DHT22;62025;39.238;9.126;2024-02-21T12:12:00;20.00;35.60
63047;DHT22;62025;39.238;9.126;2024-02-21T12:14:29;19.90;35.90
63047;DHT22;62025;39.238;9.126;2024-02-21T12:16:56;19.90;35.50
63047;DHT22;62025;39.238;9.126;2024-02-21T12:19:23;19.90;34.60
63047;DHT22;62025;39.238;9.126;2024-02-21T12:21:49;19.90;35.00
63047;DHT22;62025;39.238;9.126;2024-02-21T12:24:23;19.80;35.50
63047;DHT22;62025;39.238;9.126;2024-02-21T12:26:54;19.80;35.10
63047;DHT22;62025;39.238;9.126;2024-02-21T12:29:22;19.80;35.60
63047;DHT22;62025;39.238;9.126;2024-02-21T12:31:52;19.70;35.30
63047;DHT22;62025;39.238;9.126;2024-02-21T12:34:20;19.70;35.80
63047;DHT22;62025;39.238;9.126;2024-02-21T12:36:47;19.70;35.60
63047;DHT22;62025;39.238;9.126;2024-02-21T12:39:14;19.60;35.80
63047;DHT22;62025;39.238;9.126;2024-02-21T12:41:40;19.40;35.20
63047;DHT22;62025;39.238;9.126;2024-02-21T12:44:07;19.50;35.80
63047;DHT22;62025;39.238;9.126;2024-02-21T12:46:34;19.60;35.70
63047;DHT22;62025;39.238;9.126;2024-02-21T12:49:01;19.60;35.50
63047;DHT22;62025;39.238;9.126;2024-02-21T12:51:27;19.70;35.90
63047;DHT22;62025;39.238;9.126;2024-02-21T12:53:53;19.70;35.80
63047;DHT22;62025;39.238;9.126;2024-02-21T12:56:19;19.70;35.00
63047;DHT22;62025;39.238;9.126;2024-02-21T12:58:45;19.80;36.40
63047;DHT22;62025;39.238;9.126;2024-02-21T13:01:11;19.70;33.90
63047;DHT22;62025;39.238;9.126;2024-02-21T13:03:37;19.40;34.60
63047;DHT22;62025;39.238;9.126;2024-02-21T13:06:04;19.50;34.50
63047;DHT22;62025;39.238;9.126;2024-02-21T13:08:31;19.60;35.40
63047;DHT22;62025;39.238;9.126;2024-02-21T13:10:57;19.80;35.10
63047;DHT22;62025;39.238;9.126;2024-02-21T13:13:23;19.80;34.90
63047;DHT22;62025;39.238;9.126;2024-02-21T13:15:49;19.80;35.10
63047;DHT22;62025;39.238;9.126;2024-02-21T13:18:14;19.80;34.90
63047;DHT22;62025;39.238;9.126;2024-02-21T13:20:40;19.70;34.70
63047;DHT22;62025;39.238;9.126;2024-02-21T13:23:06;19.20;41.70
63047;DHT22;62025;39.238;9.126;2024-02-21T13:25:32;18.30;50.90
63047;DHT22;62025;39.238;9.126;2024-02-21T13:27:59;18.10;48.60
63047;DHT22;62025;39.238;9.126;2024-02-21T13:30:24;18.30;47.90
63047;DHT22;62025;39.238;9.126;2024-02-21T13:32:51;18.40;48.50
63047;DHT22;62025;39.238;9.126;2024-02-21T13:35:17;18.20;46.80
63047;DHT22;62025;39.238;9.126;2024-02-21T13:37:43;17.80;50.60
63047;DHT22;62025;39.238;9.126;2024-02-21T13:40:09;17.70;53.10
63047;DHT22;62025;39.238;9.126;2024-02-21T13:42:36;17.70;53.70
63047;DHT22;62025;39.238;9.126;2024-02-21T13:45:04;17.40;55.00
63047;DHT22;62025;39.238;9.126;2024-02-21T13:47:34;17.00;55.60
63047;DHT22;62025;39.238;9.126;2024-02-21T13:50:02;17.50;54.40
63047;DHT22;62025;39.238;9.126;2024-02-21T13:52:34;17.30;55.80
63047;DHT22;62025;39.238;9.126;2024-02-21T13:55:01;17.40;55.40
63047;DHT22;62025;39.238;9.126;2024-02-21T13:57:27;17.60;54.80
63047;DHT22;62025;39.238;9.126;2024-02-21T13:59:53;17.40;54.60
63047;DHT22;62025;39.238;9.126;2024-02-21T14:02:18;17.30;54.30
63047;DHT22;62025;39.238;9.126;2024-02-21T14:04:44;16.90;55.60
63047;DHT22;62025;39.238;9.126;2024-02-21T14:07:10;17.00;55.40
63047;DHT22;62025;39.238;9.126;2024-02-21T14:09:36;16.90;55.80
63047;DHT22;62025;39.238;9.126;2024-02-21T14:12:02;17.10;54.80
63047;DHT22;62025;39.238;9.126;2024-02-21T14:14:28;16.90;55.70
63047;DHT22;62025;39.238;9.126;2024-02-21T14:16:54;16.50;56.90
63047;DHT22;62025;39.238;9.126;2024-02-21T14:19:21;16.70;56.60
63047;DHT22;62025;39.238;9.126;2024-02-21T14:21:47;16.60;56.00
63047;DHT22;62025;39.238;9.126;2024-02-21T14:24:13;16.70;53.60
63047;DHT22;62025;39.238;9.126;2024-02-21T14:26:39;16.80;54.60
63047;DHT22;62025;39.238;9.126;2024-02-21T14:29:07;16.90;54.00
63047;DHT22;62025;39.238;9.126;2024-02-21T14:31:33;16.80;54.50
63047;DHT22;62025;39.238;9.126;2024-02-21T14:33:58;16.70;53.00
63047;DHT22;62025;39.238;9.126;2024-02-21T14:36:26;16.60;54.50
63047;DHT22;62025;39.238;9.126;2024-02-21T14:38:52;16.60;53.60
63047;DHT22;62025;39.238;9.126;2024-02-21T14:41:18;16.70;54.60
63047;DHT22;62025;39.238;9.126;2024-02-21T14:43:45;16.60;53.70
63047;DHT22;62025;39.238;9.126;2024-02-21T14:46:12;16.70;55.10
63047;DHT22;62025;39.238;9.126;2024-02-21T14:48:38;16.60;55.30
63047;DHT22;62025;39.238;9.126;2024-02-21T14:51:04;16.70;57.90
63047;DHT22;62025;39.238;9.126;2024-02-21T14:53:30;16.70;58.90
63047;DHT22;62025;39.238;9.126;2024-02-21T14:55:57;16.60;59.40
63047;DHT22;62025;39.238;9.126;2024-02-21T14:58:25;16.80;59.30
63047;DHT22;62025;39.238;9.126;2024-02-21T15:00:52;16.80;58.90
63047;DHT22;62025;39.238;9.126;2024-02-21T15:03:20;16.80;56.70
63047;DHT22;62025;39.238;9.126;2024-02-21T15:05:46;16.60;57.70
63047;DHT22;62025;39.238;9.126;2024-02-21T15:08:13;16.60;56.40
63047;DHT22;62025;39.238;9.126;2024-02-21T15:10:42;16.60;57.00
63047;DHT22;62025;39.238;9.126;2024-02-21T15:13:09;16.60;56.00
63047;DHT22;62025;39.238;9.126;2024-02-21T15:15:35;16.60;56.90
63047;DHT22;62025;39.238;9.126;2024-02-21T15:18:01;16.60;57.10
63047;DHT22;62025;39.238;9.126;2024-02-21T15:20:26;16.40;55.20
63047;DHT22;62025;39.238;9.126;2024-02-21T15:22:53;16.50;56.10
63047;DHT22;62025;39.238;9.126;2024-02-21T15:25:20;16.70;56.40
63047;DHT22;62025;39.238;9.126;2024-02-21T15:27:46;16.80;55.60
63047;DHT22;62025;39.238;9.126;2024-02-21T15:30:13;16.80;55.30
63047;DHT22;62025;39.238;9.126;2024-02-21T15:32:40;16.60;55.40
63047;DHT22;62025;39.238;9.126;2024-02-21T15:35:09;16.60;55.90